sensor_id;sensor_type;location;lat;lon;timestamp;P1;durP1;ratioP1;P2;durP2;ratioP2
15102;SDS011;7652;53.584;9.998;2022-11-20T00:02:29;2.27;;;2.07;;
15102;SDS011;7652;53.584;9.998;2022-11-20T00:05:31;4.43;;;1.97;;
15102;SDS011;7652;53.584;9.998;2022-11-20T00:08:35;2.93;;;2.10;;
15102;SDS011;7652;53.584;9.998;2022-11-20T00:11:38;2.73;;;1.93;;
15102;SDS011;7652;53.584;9.998;2022-11-20T00:14:41;2.13;;;1.90;;
15102;SDS011;7652;53.584;9.998;2022-11-20T00:17:45;1.73;;;1.63;;
15102;SDS011;7652;53.584;9.998;2022-11-20T00:20:48;2.57;;;1.80;;
15102;SDS011;7652;53.584;9.998;2022-11-20T00:23:53;2.30;;;2.10;;
15102;SDS011;7652;53.584;9.998;2022-11-20T00:26:57;2.13;;;1.80;;
15102;SDS011;7652;53.584;9.998;2022-11-20T00:30:00;4.57;;;1.73;;
15102;SDS011;7652;53.584;9.998;2022-11-20T00:33:04;2.00;;;1.80;;
15102;SDS011;7652;53.584;9.998;2022-11-20T00:36:08;2.20;;;2.00;;
15102;SDS011;7652;53.584;9.998;2022-11-20T00:39:12;3.10;;;1.97;;
15102;SDS011;7652;53.584;9.998;2022-11-20T00:42:15;2.17;;;1.83;;
15102;SDS011;7652;53.584;9.998;2022-11-20T00:45:18;2.53;;;1.80;;
15102;SDS011;7652;53.584;9.998;2022-11-20T00:48:22;3.27;;;1.80;;
15102;SDS011;7652;53.584;9.998;2022-11-20T00:51:26;1.70;;;1.60;;
15102;SDS011;7652;53.584;9.998;2022-11-20T00:54:29;1.67;;;1.50;;
15102;SDS011;7652;53.584;9.998;2022-11-20T00:57:32;6.43;;;2.00;;
15102;SDS011;7652;53.584;9.998;2022-11-20T01:00:35;2.27;;;2.07;;
15102;SDS011;7652;53.584;9.998;2022-11-20T01:03:41;3.30;;;2.10;;
15102;SDS011;7652;53.584;9.998;2022-11-20T01:06:45;2.03;;;1.63;;
15102;SDS011;7652;53.584;9.998;2022-11-20T01:09:48;2.03;;;1.70;;
15102;SDS011;7652;53.584;9.998;2022-11-20T01:12:51;1.70;;;1.57;;
15102;SDS011;7652;53.584;9.998;2022-11-20T01:16:15;3.03;;;1.83;;
15102;SDS011;7652;53.584;9.998;2022-11-20T01:19:21;2.13;;;1.83;;
15102;SDS011;7652;53.584;9.998;2022-11-20T01:22:25;4.00;;;2.33;;
15102;SDS011;7652;53.584;9.998;2022-11-20T01:25:28;1.77;;;1.43;;
15102;SDS011;7652;53.584;9.998;2022-11-20T01:28:31;3.23;;;2.10;;
15102;SDS011;7652;53.584;9.998;2022-11-20T01:31:36;2.10;;;1.67;;
15102;SDS011;7652;53.584;9.998;2022-11-20T01:34:40;2.73;;;2.00;;
15102;SDS011;7652;53.584;9.998;2022-11-20T01:37:43;2.00;;;1.80;;
15102;SDS011;7652;53.584;9.998;2022-11-20T01:40:53;3.80;;;2.20;;
15102;SDS011;7652;53.584;9.998;2022-11-20T01:43:56;2.70;;;1.60;;
15102;SDS011;7652;53.584;9.998;2022-11-20T01:46:59;2.10;;;1.70;;
15102;SDS011;7652;53.584;9.998;2022-11-20T01:50:09;3.83;;;2.20;;
15102;SDS011;7652;53.584;9.998;2022-11-20T01:53:17;2.83;;;2.13;;
15102;SDS011;7652;53.584;9.998;2022-11-20T01:56:24;3.17;;;2.37;;
15102;SDS011;7652;53.584;9.998;2022-11-20T01:59:29;1.90;;;1.80;;
15102;SDS011;7652;53.584;9.998;2022-11-20T02:02:32;3.40;;;2.33;;
15102;SDS011;7652;53.584;9.998;2022-11-20T02:05:38;3.30;;;2.20;;
15102;SDS011;7652;53.584;9.998;2022-11-20T02:08:46;2.10;;;1.90;;
15102;SDS011;7652;53.584;9.998;2022-11-20T02:11:49;1.93;;;1.73;;
15102;SDS011;7652;53.584;9.998;2022-11-20T02:14:53;2.13;;;1.93;;
15102;SDS011;7652;53.584;9.998;2022-11-20T02:17:55;2.53;;;2.10;;
15102;SDS011;7652;53.584;9.998;2022-11-20T02:21:01;2.67;;;2.07;;
15102;SDS011;7652;53.584;9.998;2022-11-20T02:24:11;3.87;;;2.13;;
15102;SDS011;7652;53.584;9.998;2022-11-20T02:27:16;2.63;;;2.00;;
15102;SDS011;7652;53.584;9.998;2022-11-20T02:30:20;2.10;;;1.90;;
15102;SDS011;7652;53.584;9.998;2022-11-20T02:33:23;1.63;;;1.53;;
15102;SDS011;7652;53.584;9.998;2022-11-20T02:36:26;4.40;;;1.90;;
15102;SDS011;7652;53.584;9.998;2022-11-20T02:39:31;2.20;;;1.87;;
15102;SDS011;7652;53.584;9.998;2022-11-20T02:42:34;2.43;;;2.10;;
15102;SDS011;7652;53.584;9.998;2022-11-20T02:45:37;2.23;;;1.90;;
15102;SDS011;7652;53.584;9.998;2022-11-20T02:48:40;2.53;;;1.87;;
15102;SDS011;7652;53.584;9.998;2022-11-20T02:51:43;2.50;;;2.10;;
15102;SDS011;7652;53.584;9.998;2022-11-20T02:54:48;2.33;;;1.77;;
15102;SDS011;7652;53.584;9.998;2022-11-20T02:57:51;4.93;;;1.90;;
15102;SDS011;7652;53.584;9.998;2022-11-20T03:00:54;2.27;;;1.80;;
15102;SDS011;7652;53.584;9.998;2022-11-20T03:03:57;2.10;;;1.90;;
15102;SDS011;7652;53.584;9.998;2022-11-20T03:07:00;2.50;;;1.90;;
15102;SDS011;7652;53.584;9.998;2022-11-20T03:10:05;1.73;;;1.63;;
15102;SDS011;7652;53.584;9.998;2022-11-20T03:13:08;2.10;;;1.90;;
15102;SDS011;7652;53.584;9.998;2022-11-20T03:16:13;2.60;;;2.27;;
15102;SDS011;7652;53.584;9.998;2022-11-20T03:19:17;2.27;;;2.07;;
15102;SDS011;7652;53.584;9.998;2022-11-20T03:22:20;2.77;;;2.27;;
15102;SDS011;7652;53.584;9.998;2022-11-20T03:25:25;2.93;;;2.03;;
15102;SDS011;7652;53.584;9.998;2022-11-20T03:28:28;2.10;;;1.90;;
15102;SDS011;7652;53.584;9.998;2022-11-20T03:31:31;3.97;;;2.07;;
15102;SDS011;7652;53.584;9.998;2022-11-20T03:34:36;2.20;;;1.90;;
15102;SDS011;7652;53.584;9.998;2022-11-20T03:37:39;1.67;;;1.57;;
15102;SDS011;7652;53.584;9.998;2022-11-20T03:40:43;3.03;;;1.87;;
15102;SDS011;7652;53.584;9.998;2022-11-20T03:43:47;2.07;;;1.87;;
15102;SDS011;7652;53.584;9.998;2022-11-20T03:46:51;2.00;;;1.60;;
15102;SDS011;7652;53.584;9.998;2022-11-20T03:49:54;2.07;;;1.87;;
15102;SDS011;7652;53.584;9.998;2022-11-20T03:52:57;2.90;;;2.00;;
15102;SDS011;7652;53.584;9.998;2022-11-20T03:56:01;1.63;;;1.53;;
15102;SDS011;7652;53.584;9.998;2022-11-20T03:59:05;1.77;;;1.67;;
15102;SDS011;7652;53.584;9.998;2022-11-20T04:02:09;2.33;;;1.90;;
15102;SDS011;7652;53.584;9.998;2022-11-20T04:05:12;2.47;;;2.00;;
15102;SDS011;7652;53.584;9.998;2022-11-20T04:08:15;2.30;;;2.10;;
15102;SDS011;7652;53.584;9.998;2022-11-20T04:11:19;2.27;;;2.07;;
15102;SDS011;7652;53.584;9.998;2022-11-20T04:14:23;2.03;;;1.83;;
15102;SDS011;7652;53.584;9.998;2022-11-20T04:17:27;2.53;;;2.30;;
15102;SDS011;7652;53.584;9.998;2022-11-20T04:20:29;2.73;;;2.20;;
15102;SDS011;7652;53.584;9.998;2022-11-20T04:23:32;3.20;;;2.07;;
15102;SDS011;7652;53.584;9.998;2022-11-20T04:26:37;1.90;;;1.53;;
15102;SDS011;7652;53.584;9.998;2022-11-20T04:29:41;1.90;;;1.77;;
15102;SDS011;7652;53.584;9.998;2022-11-20T04:32:44;2.10;;;1.90;;
15102;SDS011;7652;53.584;9.998;2022-11-20T04:35:47;2.07;;;1.77;;
15102;SDS011;7652;53.584;9.998;2022-11-20T04:38:50;2.30;;;2.10;;
15102;SDS011;7652;53.584;9.998;2022-11-20T04:41:59;3.93;;;2.40;;
15102;SDS011;7652;53.584;9.998;2022-11-20T04:45:19;2.37;;;2.13;;
15102;SDS011;7652;53.584;9.998;2022-11-20T04:48:22;2.37;;;2.17;;
15102;SDS011;7652;53.584;9.998;2022-11-20T04:51:26;2.97;;;2.47;;
15102;SDS011;7652;53.584;9.998;2022-11-20T04:54:30;2.33;;;2.07;;
15102;SDS011;7652;53.584;9.998;2022-11-20T04:57:34;2.60;;;1.93;;
15102;SDS011;7652;53.584;9.998;2022-11-20T05:00:37;3.30;;;2.03;;
15102;SDS011;7652;53.584;9.998;2022-11-20T05:03:40;2.37;;;2.07;;
15102;SDS011;7652;53.584;9.998;2022-11-20T05:06:44;3.30;;;2.17;;
15102;SDS011;7652;53.584;9.998;2022-11-20T05:09:47;2.47;;;2.27;;
15102;SDS011;7652;53.584;9.998;2022-11-20T05:12:51;2.60;;;2.40;;
15102;SDS011;7652;53.584;9.998;2022-11-20T05:15:55;2.93;;;2.53;;
15102;SDS011;7652;53.584;9.998;2022-11-20T05:18:58;2.30;;;2.00;;
15102;SDS011;7652;53.584;9.998;2022-11-20T05:22:01;3.40;;;2.30;;
15102;SDS011;7652;53.584;9.998;2022-11-20T05:25:04;2.10;;;1.90;;
15102;SDS011;7652;53.584;9.998;2022-11-20T05:28:09;2.73;;;2.17;;
15102;SDS011;7652;53.584;9.998;2022-11-20T05:31:12;2.57;;;2.37;;
15102;SDS011;7652;53.584;9.998;2022-11-20T05:34:22;2.13;;;1.93;;
15102;SDS011;7652;53.584;9.998;2022-11-20T05:37:25;2.23;;;1.90;;
15102;SDS011;7652;53.584;9.998;2022-11-20T05:40:28;2.73;;;2.27;;
15102;SDS011;7652;53.584;9.998;2022-11-20T05:43:33;4.17;;;2.20;;
15102;SDS011;7652;53.584;9.998;2022-11-20T05:46:36;2.40;;;2.20;;
15102;SDS011;7652;53.584;9.998;2022-11-20T05:49:39;3.87;;;2.13;;
15102;SDS011;7652;53.584;9.998;2022-11-20T05:52:42;2.77;;;2.03;;
15102;SDS011;7652;53.584;9.998;2022-11-20T05:55:45;2.63;;;2.13;;
15102;SDS011;7652;53.584;9.998;2022-11-20T05:58:50;2.47;;;2.23;;
15102;SDS011;7652;53.584;9.998;2022-11-20T06:01:53;2.97;;;2.40;;
15102;SDS011;7652;53.584;9.998;2022-11-20T06:04:56;3.13;;;2.50;;
15102;SDS011;7652;53.584;9.998;2022-11-20T06:08:00;2.90;;;2.30;;
15102;SDS011;7652;53.584;9.998;2022-11-20T06:11:03;2.73;;;2.00;;
15102;SDS011;7652;53.584;9.998;2022-11-20T06:14:08;3.23;;;2.43;;
15102;SDS011;7652;53.584;9.998;2022-11-20T06:17:11;4.67;;;3.03;;
15102;SDS011;7652;53.584;9.998;2022-11-20T06:20:14;3.57;;;3.23;;
15102;SDS011;7652;53.584;9.998;2022-11-20T06:23:17;6.20;;;3.93;;
15102;SDS011;7652;53.584;9.998;2022-11-20T06:26:21;4.53;;;4.00;;
15102;SDS011;7652;53.584;9.998;2022-11-20T06:29:26;5.10;;;4.37;;
15102;SDS011;7652;53.584;9.998;2022-11-20T06:32:34;5.60;;;4.23;;
15102;SDS011;7652;53.584;9.998;2022-11-20T06:35:37;5.33;;;3.93;;
15102;SDS011;7652;53.584;9.998;2022-11-20T06:38:40;4.57;;;4.00;;
15102;SDS011;7652;53.584;9.998;2022-11-20T06:41:43;4.37;;;3.97;;
15102;SDS011;7652;53.584;9.998;2022-11-20T06:44:48;4.90;;;3.80;;
15102;SDS011;7652;53.584;9.998;2022-11-20T06:47:51;4.53;;;3.97;;
15102;SDS011;7652;53.584;9.998;2022-11-20T06:50:54;7.93;;;3.90;;
15102;SDS011;7652;53.584;9.998;2022-11-20T06:53:57;4.10;;;3.13;;
15102;SDS011;7652;53.584;9.998;2022-11-20T06:57:00;4.00;;;3.07;;
15102;SDS011;7652;53.584;9.998;2022-11-20T07:00:05;3.63;;;2.97;;
15102;SDS011;7652;53.584;9.998;2022-11-20T07:03:09;4.83;;;3.07;;
15102;SDS011;7652;53.584;9.998;2022-11-20T07:06:13;3.60;;;2.87;;
15102;SDS011;7652;53.584;9.998;2022-11-20T07:09:16;3.23;;;2.93;;
15102;SDS011;7652;53.584;9.998;2022-11-20T07:12:19;4.40;;;2.87;;
15102;SDS011;7652;53.584;9.998;2022-11-20T07:15:23;2.77;;;2.50;;
15102;SDS011;7652;53.584;9.998;2022-11-20T07:18:27;4.00;;;2.73;;
15102;SDS011;7652;53.584;9.998;2022-11-20T07:21:30;2.60;;;2.40;;
15102;SDS011;7652;53.584;9.998;2022-11-20T07:24:33;2.57;;;2.30;;
15102;SDS011;7652;53.584;9.998;2022-11-20T07:27:37;3.03;;;2.57;;
15102;SDS011;7652;53.584;9.998;2022-11-20T07:30:41;3.33;;;2.90;;
15102;SDS011;7652;53.584;9.998;2022-11-20T07:33:44;3.60;;;2.70;;
15102;SDS011;7652;53.584;9.998;2022-11-20T07:36:47;3.03;;;2.27;;
15102;SDS011;7652;53.584;9.998;2022-11-20T07:39:50;3.20;;;2.17;;
15102;SDS011;7652;53.584;9.998;2022-11-20T07:42:53;2.50;;;2.30;;
15102;SDS011;7652;53.584;9.998;2022-11-20T07:45:58;2.90;;;2.30;;
15102;SDS011;7652;53.584;9.998;2022-11-20T07:49:02;2.63;;;2.30;;
15102;SDS011;7652;53.584;9.998;2022-11-20T07:52:05;2.80;;;2.60;;
15102;SDS011;7652;53.584;9.998;2022-11-20T07:55:08;2.57;;;2.33;;
15102;SDS011;7652;53.584;9.998;2022-11-20T07:58:12;3.07;;;2.20;;
15102;SDS011;7652;53.584;9.998;2022-11-20T08:01:17;3.73;;;2.43;;
15102;SDS011;7652;53.584;9.998;2022-11-20T08:04:20;5.20;;;3.00;;
15102;SDS011;7652;53.584;9.998;2022-11-20T08:07:24;3.93;;;2.87;;
15102;SDS011;7652;53.584;9.998;2022-11-20T08:10:27;3.37;;;2.97;;
15102;SDS011;7652;53.584;9.998;2022-11-20T08:13:30;3.17;;;2.70;;
15102;SDS011;7652;53.584;9.998;2022-11-20T08:16:52;2.33;;;2.13;;
15102;SDS011;7652;53.584;9.998;2022-11-20T08:19:56;3.50;;;2.60;;
15102;SDS011;7652;53.584;9.998;2022-11-20T08:22:59;2.83;;;2.50;;
15102;SDS011;7652;53.584;9.998;2022-11-20T08:26:02;4.30;;;2.40;;
15102;SDS011;7652;53.584;9.998;2022-11-20T08:29:06;2.50;;;2.20;;
15102;SDS011;7652;53.584;9.998;2022-11-20T08:32:10;2.63;;;2.30;;
15102;SDS011;7652;53.584;9.998;2022-11-20T08:35:13;3.17;;;2.30;;
15102;SDS011;7652;53.584;9.998;2022-11-20T08:38:16;2.20;;;2.00;;
15102;SDS011;7652;53.584;9.998;2022-11-20T08:41:19;2.10;;;1.90;;
15102;SDS011;7652;53.584;9.998;2022-11-20T08:44:26;2.23;;;1.90;;
15102;SDS011;7652;53.584;9.998;2022-11-20T08:47:31;4.00;;;1.67;;
15102;SDS011;7652;53.584;9.998;2022-11-20T08:50:34;2.60;;;2.13;;
15102;SDS011;7652;53.584;9.998;2022-11-20T08:53:37;2.27;;;2.07;;
15102;SDS011;7652;53.584;9.998;2022-11-20T08:56:40;1.97;;;1.57;;
15102;SDS011;7652;53.584;9.998;2022-11-20T08:59:43;1.97;;;1.70;;
15102;SDS011;7652;53.584;9.998;2022-11-20T09:03:07;1.80;;;1.70;;
15102;SDS011;7652;53.584;9.998;2022-11-20T09:06:10;2.33;;;1.83;;
15102;SDS011;7652;53.584;9.998;2022-11-20T09:09:13;2.10;;;1.90;;
15102;SDS011;7652;53.584;9.998;2022-11-20T09:12:16;2.43;;;2.20;;
15102;SDS011;7652;53.584;9.998;2022-11-20T09:15:19;2.10;;;1.90;;
15102;SDS011;7652;53.584;9.998;2022-11-20T09:18:23;1.63;;;1.53;;
15102;SDS011;7652;53.584;9.998;2022-11-20T09:21:27;1.97;;;1.77;;
15102;SDS011;7652;53.584;9.998;2022-11-20T09:24:30;2.43;;;2.07;;
15102;SDS011;7652;53.584;9.998;2022-11-20T09:27:33;2.40;;;2.20;;
15102;SDS011;7652;53.584;9.998;2022-11-20T09:30:36;2.00;;;1.90;;
15102;SDS011;7652;53.584;9.998;2022-11-20T09:33:41;2.93;;;1.80;;
15102;SDS011;7652;53.584;9.998;2022-11-20T09:36:44;2.40;;;2.20;;
15102;SDS011;7652;53.584;9.998;2022-11-20T09:39:47;1.90;;;1.80;;
15102;SDS011;7652;53.584;9.998;2022-11-20T09:42:52;2.33;;;2.13;;
15102;SDS011;7652;53.584;9.998;2022-11-20T09:46:04;2.03;;;1.83;;
15102;SDS011;7652;53.584;9.998;2022-11-20T09:49:17;2.57;;;2.10;;
15102;SDS011;7652;53.584;9.998;2022-11-20T09:52:35;2.40;;;2.20;;
15102;SDS011;7652;53.584;9.998;2022-11-20T09:55:46;2.07;;;1.87;;
15102;SDS011;7652;53.584;9.998;2022-11-20T09:58:51;2.50;;;1.90;;
15102;SDS011;7652;53.584;9.998;2022-11-20T10:01:57;2.37;;;2.17;;
15102;SDS011;7652;53.584;9.998;2022-11-20T10:05:04;3.83;;;2.70;;
15102;SDS011;7652;53.584;9.998;2022-11-20T10:08:14;3.27;;;2.30;;
15102;SDS011;7652;53.584;9.998;2022-11-20T10:11:21;2.00;;;1.90;;
15102;SDS011;7652;53.584;9.998;2022-11-20T10:14:33;2.70;;;2.37;;
15102;SDS011;7652;53.584;9.998;2022-11-20T10:17:58;2.00;;;1.90;;
15102;SDS011;7652;53.584;9.998;2022-11-20T10:21:26;2.33;;;2.13;;
15102;SDS011;7652;53.584;9.998;2022-11-20T10:24:44;1.73;;;1.63;;
15102;SDS011;7652;53.584;9.998;2022-11-20T10:27:58;2.33;;;1.70;;
15102;SDS011;7652;53.584;9.998;2022-11-20T10:31:09;2.07;;;1.80;;
15102;SDS011;7652;53.584;9.998;2022-11-20T10:34:20;2.17;;;1.97;;
15102;SDS011;7652;53.584;9.998;2022-11-20T10:37:28;2.10;;;1.90;;
15102;SDS011;7652;53.584;9.998;2022-11-20T10:40:34;2.30;;;2.10;;
15102;SDS011;7652;53.584;9.998;2022-11-20T10:43:40;2.00;;;1.90;;
15102;SDS011;7652;53.584;9.998;2022-11-20T10:46:44;4.00;;;2.87;;
15102;SDS011;7652;53.584;9.998;2022-11-20T10:49:48;2.10;;;1.90;;
15102;SDS011;7652;53.584;9.998;2022-11-20T10:52:58;2.20;;;1.80;;
15102;SDS011;7652;53.584;9.998;2022-11-20T10:56:08;2.30;;;2.10;;
15102;SDS011;7652;53.584;9.998;2022-11-20T11:02:44;2.10;;;1.90;;
15102;SDS011;7652;53.584;9.998;2022-11-20T11:05:50;2.50;;;2.10;;
15102;SDS011;7652;53.584;9.998;2022-11-20T11:08:58;1.77;;;1.67;;
15102;SDS011;7652;53.584;9.998;2022-11-20T11:12:06;2.10;;;1.90;;
15102;SDS011;7652;53.584;9.998;2022-11-20T11:15:11;2.60;;;2.10;;
15102;SDS011;7652;53.584;9.998;2022-11-20T11:18:23;2.10;;;1.97;;
15102;SDS011;7652;53.584;9.998;2022-11-20T11:21:27;1.87;;;1.73;;
15102;SDS011;7652;53.584;9.998;2022-11-20T11:24:31;2.00;;;1.70;;
15102;SDS011;7652;53.584;9.998;2022-11-20T11:27:45;1.73;;;1.63;;
15102;SDS011;7652;53.584;9.998;2022-11-20T11:30:48;1.63;;;1.53;;
15102;SDS011;7652;53.584;9.998;2022-11-20T11:33:51;1.70;;;1.57;;
15102;SDS011;7652;53.584;9.998;2022-11-20T11:36:55;1.73;;;1.63;;
15102;SDS011;7652;53.584;9.998;2022-11-20T11:40:01;3.10;;;1.90;;
15102;SDS011;7652;53.584;9.998;2022-11-20T11:43:26;1.40;;;1.30;;
15102;SDS011;7652;53.584;9.998;2022-11-20T11:46:51;2.70;;;1.70;;
15102;SDS011;7652;53.584;9.998;2022-11-20T11:50:13;3.00;;;1.67;;
15102;SDS011;7652;53.584;9.998;2022-11-20T11:53:19;1.60;;;1.43;;
15102;SDS011;7652;53.584;9.998;2022-11-20T11:56:25;1.50;;;1.27;;
15102;SDS011;7652;53.584;9.998;2022-11-20T11:59:33;1.37;;;1.13;;
15102;SDS011;7652;53.584;9.998;2022-11-20T12:02:49;1.30;;;1.20;;
15102;SDS011;7652;53.584;9.998;2022-11-20T12:06:04;2.13;;;1.00;;
15102;SDS011;7652;53.584;9.998;2022-11-20T12:09:11;1.27;;;1.17;;
15102;SDS011;7652;53.584;9.998;2022-11-20T12:12:17;1.07;;;1.07;;
15102;SDS011;7652;53.584;9.998;2022-11-20T12:15:26;1.40;;;1.30;;
15102;SDS011;7652;53.584;9.998;2022-11-20T12:18:32;1.37;;;1.27;;
15102;SDS011;7652;53.584;9.998;2022-11-20T12:21:37;1.10;;;1.10;;
15102;SDS011;7652;53.584;9.998;2022-11-20T12:24:52;1.43;;;1.33;;
15102;SDS011;7652;53.584;9.998;2022-11-20T12:28:08;1.37;;;1.27;;
15102;SDS011;7652;53.584;9.998;2022-11-20T12:31:26;1.50;;;1.40;;
15102;SDS011;7652;53.584;9.998;2022-11-20T12:34:43;1.60;;;1.50;;
15102;SDS011;7652;53.584;9.998;2022-11-20T12:37:57;1.30;;;1.20;;
15102;SDS011;7652;53.584;9.998;2022-11-20T12:41:11;1.43;;;1.33;;
15102;SDS011;7652;53.584;9.998;2022-11-20T12:48:19;3.30;;;3.10;;
15102;SDS011;7652;53.584;9.998;2022-11-20T12:51:57;1.57;;;1.43;;
15102;SDS011;7652;53.584;9.998;2022-11-20T12:55:11;1.50;;;1.40;;
15102;SDS011;7652;53.584;9.998;2022-11-20T12:58:27;1.43;;;1.33;;
15102;SDS011;7652;53.584;9.998;2022-11-20T13:01:37;2.67;;;2.47;;
15102;SDS011;7652;53.584;9.998;2022-11-20T13:04:55;1.53;;;1.43;;
15102;SDS011;7652;53.584;9.998;2022-11-20T13:08:13;2.17;;;1.53;;
15102;SDS011;7652;53.584;9.998;2022-11-20T13:11:24;1.80;;;1.70;;
15102;SDS011;7652;53.584;9.998;2022-11-20T13:14:34;1.57;;;1.47;;
15102;SDS011;7652;53.584;9.998;2022-11-20T13:17:44;1.57;;;1.47;;
15102;SDS011;7652;53.584;9.998;2022-11-20T13:20:54;1.97;;;1.73;;
15102;SDS011;7652;53.584;9.998;2022-11-20T13:24:03;2.67;;;1.50;;
15102;SDS011;7652;53.584;9.998;2022-11-20T13:27:17;1.37;;;1.27;;
15102;SDS011;7652;53.584;9.998;2022-11-20T13:30:23;1.37;;;1.20;;
15102;SDS011;7652;53.584;9.998;2022-11-20T13:33:28;1.57;;;1.47;;
15102;SDS011;7652;53.584;9.998;2022-11-20T13:36:34;1.57;;;1.47;;
15102;SDS011;7652;53.584;9.998;2022-11-20T13:39:37;1.27;;;1.23;;
15102;SDS011;7652;53.584;9.998;2022-11-20T13:42:43;1.27;;;1.17;;
15102;SDS011;7652;53.584;9.998;2022-11-20T13:45:54;1.30;;;1.20;;
15102;SDS011;7652;53.584;9.998;2022-11-20T13:49:05;1.40;;;1.30;;
15102;SDS011;7652;53.584;9.998;2022-11-20T13:52:23;1.30;;;1.20;;
15102;SDS011;7652;53.584;9.998;2022-11-20T13:55:37;1.43;;;1.33;;
15102;SDS011;7652;53.584;9.998;2022-11-20T13:58:48;1.50;;;1.40;;
15102;SDS011;7652;53.584;9.998;2022-11-20T14:02:08;1.30;;;1.20;;
15102;SDS011;7652;53.584;9.998;2022-11-20T14:05:17;1.57;;;1.47;;
15102;SDS011;7652;53.584;9.998;2022-11-20T14:08:25;1.23;;;1.23;;
15102;SDS011;7652;53.584;9.998;2022-11-20T14:11:32;1.50;;;1.40;;
15102;SDS011;7652;53.584;9.998;2022-11-20T14:14:35;1.90;;;1.80;;
15102;SDS011;7652;53.584;9.998;2022-11-20T14:17:49;2.10;;;1.87;;
15102;SDS011;7652;53.584;9.998;2022-11-20T14:20:52;2.70;;;2.13;;
15102;SDS011;7652;53.584;9.998;2022-11-20T14:24:04;3.17;;;2.30;;
15102;SDS011;7652;53.584;9.998;2022-11-20T14:27:11;2.17;;;1.87;;
15102;SDS011;7652;53.584;9.998;2022-11-20T14:30:16;2.07;;;1.87;;
15102;SDS011;7652;53.584;9.998;2022-11-20T14:33:21;1.67;;;1.57;;
15102;SDS011;7652;53.584;9.998;2022-11-20T14:36:26;1.37;;;1.27;;
15102;SDS011;7652;53.584;9.998;2022-11-20T14:39:32;1.20;;;1.10;;
15102;SDS011;7652;53.584;9.998;2022-11-20T14:42:36;1.23;;;1.13;;
15102;SDS011;7652;53.584;9.998;2022-11-20T14:45:46;1.40;;;1.30;;
15102;SDS011;7652;53.584;9.998;2022-11-20T14:48:55;2.03;;;1.73;;
15102;SDS011;7652;53.584;9.998;2022-11-20T14:52:00;1.57;;;1.47;;
15102;SDS011;7652;53.584;9.998;2022-11-20T14:55:07;2.10;;;1.50;;
15102;SDS011;7652;53.584;9.998;2022-11-20T14:58:20;1.50;;;1.40;;
15102;SDS011;7652;53.584;9.998;2022-11-20T15:01:25;2.50;;;1.57;;
15102;SDS011;7652;53.584;9.998;2022-11-20T15:04:29;3.93;;;2.40;;
15102;SDS011;7652;53.584;9.998;2022-11-20T15:07:33;3.23;;;2.70;;
15102;SDS011;7652;53.584;9.998;2022-11-20T15:10:43;10.07;;;5.30;;
15102;SDS011;7652;53.584;9.998;2022-11-20T15:13:48;14.20;;;8.43;;
15102;SDS011;7652;53.584;9.998;2022-11-20T15:16:51;14.57;;;9.47;;
15102;SDS011;7652;53.584;9.998;2022-11-20T15:19:54;4.63;;;3.17;;
15102;SDS011;7652;53.584;9.998;2022-11-20T15:22:58;3.07;;;2.30;;
15102;SDS011;7652;53.584;9.998;2022-11-20T15:26:02;3.00;;;2.13;;
15102;SDS011;7652;53.584;9.998;2022-11-20T15:29:07;2.40;;;1.97;;
15102;SDS011;7652;53.584;9.998;2022-11-20T15:32:12;1.93;;;1.53;;
15102;SDS011;7652;53.584;9.998;2022-11-20T15:35:15;2.10;;;1.90;;
15102;SDS011;7652;53.584;9.998;2022-11-20T15:38:18;2.33;;;2.00;;
15102;SDS011;7652;53.584;9.998;2022-11-20T15:41:22;2.33;;;2.13;;
15102;SDS011;7652;53.584;9.998;2022-11-20T15:44:25;2.03;;;1.77;;
15102;SDS011;7652;53.584;9.998;2022-11-20T15:47:29;2.53;;;2.07;;
15102;SDS011;7652;53.584;9.998;2022-11-20T15:50:36;3.93;;;3.40;;
15102;SDS011;7652;53.584;9.998;2022-11-20T15:53:41;3.17;;;2.67;;
15102;SDS011;7652;53.584;9.998;2022-11-20T15:56:45;2.83;;;2.50;;
15102;SDS011;7652;53.584;9.998;2022-11-20T15:59:49;4.33;;;3.53;;
15102;SDS011;7652;53.584;9.998;2022-11-20T16:02:52;2.70;;;2.50;;
15102;SDS011;7652;53.584;9.998;2022-11-20T16:05:55;2.40;;;2.20;;
15102;SDS011;7652;53.584;9.998;2022-11-20T16:08:58;6.60;;;3.13;;
15102;SDS011;7652;53.584;9.998;2022-11-20T16:12:02;2.67;;;2.40;;
15102;SDS011;7652;53.584;9.998;2022-11-20T16:15:07;3.73;;;2.60;;
15102;SDS011;7652;53.584;9.998;2022-11-20T16:18:28;2.60;;;2.23;;
15102;SDS011;7652;53.584;9.998;2022-11-20T16:21:31;4.10;;;2.23;;
15102;SDS011;7652;53.584;9.998;2022-11-20T16:24:34;3.00;;;2.70;;
15102;SDS011;7652;53.584;9.998;2022-11-20T16:27:38;3.27;;;2.80;;
15102;SDS011;7652;53.584;9.998;2022-11-20T16:30:41;2.57;;;2.20;;
15102;SDS011;7652;53.584;9.998;2022-11-20T16:33:48;2.73;;;2.33;;
15102;SDS011;7652;53.584;9.998;2022-11-20T16:36:52;3.27;;;2.50;;
15102;SDS011;7652;53.584;9.998;2022-11-20T16:39:55;2.73;;;2.47;;
15102;SDS011;7652;53.584;9.998;2022-11-20T16:43:01;7.27;;;3.37;;
15102;SDS011;7652;53.584;9.998;2022-11-20T16:46:10;4.13;;;2.33;;
15102;SDS011;7652;53.584;9.998;2022-11-20T16:49:14;3.60;;;3.07;;
15102;SDS011;7652;53.584;9.998;2022-11-20T16:52:17;4.27;;;3.33;;
15102;SDS011;7652;53.584;9.998;2022-11-20T16:55:20;6.13;;;3.63;;
15102;SDS011;7652;53.584;9.998;2022-11-20T16:58:24;12.47;;;5.93;;
15102;SDS011;7652;53.584;9.998;2022-11-20T17:01:28;9.30;;;4.90;;
15102;SDS011;7652;53.584;9.998;2022-11-20T17:04:31;4.07;;;3.40;;
15102;SDS011;7652;53.584;9.998;2022-11-20T17:07:34;4.70;;;3.53;;
15102;SDS011;7652;53.584;9.998;2022-11-20T17:10:39;4.23;;;3.10;;
15102;SDS011;7652;53.584;9.998;2022-11-20T17:13:44;2.67;;;2.37;;
15102;SDS011;7652;53.584;9.998;2022-11-20T17:16:48;2.70;;;2.50;;
15102;SDS011;7652;53.584;9.998;2022-11-20T17:19:51;3.00;;;2.63;;
15102;SDS011;7652;53.584;9.998;2022-11-20T17:22:53;5.10;;;2.73;;
15102;SDS011;7652;53.584;9.998;2022-11-20T17:26:01;4.00;;;2.80;;
15102;SDS011;7652;53.584;9.998;2022-11-20T17:29:07;3.27;;;2.97;;
15102;SDS011;7652;53.584;9.998;2022-11-20T17:32:12;3.27;;;2.77;;
15102;SDS011;7652;53.584;9.998;2022-11-20T17:35:15;4.03;;;3.30;;
15102;SDS011;7652;53.584;9.998;2022-11-20T17:38:18;3.27;;;2.83;;
15102;SDS011;7652;53.584;9.998;2022-11-20T17:41:22;4.37;;;3.53;;
15102;SDS011;7652;53.584;9.998;2022-11-20T17:44:27;5.00;;;3.53;;
15102;SDS011;7652;53.584;9.998;2022-11-20T17:47:30;5.67;;;3.67;;
15102;SDS011;7652;53.584;9.998;2022-11-20T17:50:36;5.93;;;4.20;;
15102;SDS011;7652;53.584;9.998;2022-11-20T17:53:39;4.87;;;4.27;;
15102;SDS011;7652;53.584;9.998;2022-11-20T17:56:43;5.77;;;4.10;;
15102;SDS011;7652;53.584;9.998;2022-11-20T18:00:06;5.63;;;4.27;;
15102;SDS011;7652;53.584;9.998;2022-11-20T18:03:12;4.53;;;3.90;;
15102;SDS011;7652;53.584;9.998;2022-11-20T18:06:15;4.37;;;3.97;;
15102;SDS011;7652;53.584;9.998;2022-11-20T18:09:20;5.73;;;4.67;;
15102;SDS011;7652;53.584;9.998;2022-11-20T18:12:23;6.97;;;5.30;;
15102;SDS011;7652;53.584;9.998;2022-11-20T18:15:27;6.47;;;4.90;;
15102;SDS011;7652;53.584;9.998;2022-11-20T18:18:30;5.43;;;4.20;;
15102;SDS011;7652;53.584;9.998;2022-11-20T18:21:33;5.80;;;4.47;;
15102;SDS011;7652;53.584;9.998;2022-11-20T18:24:36;5.23;;;4.67;;
15102;SDS011;7652;53.584;9.998;2022-11-20T18:27:39;7.27;;;4.80;;
15102;SDS011;7652;53.584;9.998;2022-11-20T18:30:44;6.37;;;4.70;;
15102;SDS011;7652;53.584;9.998;2022-11-20T18:33:47;7.63;;;5.00;;
15102;SDS011;7652;53.584;9.998;2022-11-20T18:36:50;5.90;;;4.70;;
15102;SDS011;7652;53.584;9.998;2022-11-20T18:39:53;5.73;;;4.87;;
15102;SDS011;7652;53.584;9.998;2022-11-20T18:42:57;4.87;;;4.33;;
15102;SDS011;7652;53.584;9.998;2022-11-20T18:46:19;4.97;;;3.93;;
15102;SDS011;7652;53.584;9.998;2022-11-20T18:49:22;4.60;;;3.90;;
15102;SDS011;7652;53.584;9.998;2022-11-20T18:52:25;4.37;;;3.63;;
15102;SDS011;7652;53.584;9.998;2022-11-20T18:55:30;6.40;;;4.73;;
15102;SDS011;7652;53.584;9.998;2022-11-20T18:58:33;8.10;;;5.77;;
15102;SDS011;7652;53.584;9.998;2022-11-20T19:01:37;7.13;;;5.93;;
15102;SDS011;7652;53.584;9.998;2022-11-20T19:04:41;7.30;;;5.90;;